createdAt,value
2019-01-26T00:02:50.309Z,15.80
2019-01-26T00:07:55.052Z,17.30
2019-01-26T00:12:58.763Z,17.47
2019-01-26T00:18:02.458Z,17.23
2019-01-26T00:23:06.221Z,16.00
2019-01-26T00:28:10.084Z,17.20
2019-01-26T00:33:13.777Z,18.23
2019-01-26T00:38:17.761Z,17.00
2019-01-26T00:43:21.751Z,16.33
2019-01-26T00:48:25.505Z,15.83
2019-01-26T00:53:29.194Z,16.23
2019-01-26T00:58:32.872Z,16.57
2019-01-26T01:03:36.998Z,16.47
2019-01-26T01:08:41.953Z,14.23
2019-01-26T01:13:45.960Z,16.07
2019-01-26T01:18:49.651Z,15.37
2019-01-26T01:23:53.387Z,15.27
2019-01-26T01:28:57.076Z,15.87
2019-01-26T01:34:00.738Z,15.27
2019-01-26T01:39:08.093Z,14.23
2019-01-26T01:44:11.770Z,15.97
2019-01-26T01:49:15.499Z,15.67
2019-01-26T01:54:19.260Z,15.40
2019-01-26T01:59:22.955Z,15.03
2019-01-26T02:04:26.669Z,14.27
2019-01-26T02:09:30.474Z,13.17
2019-01-26T02:14:34.384Z,13.47
2019-01-26T02:19:38.805Z,13.20
2019-01-26T02:24:42.508Z,14.30
2019-01-26T02:29:46.479Z,14.33
2019-01-26T02:34:50.195Z,13.87
2019-01-26T02:39:53.973Z,14.20
2019-01-26T02:44:57.693Z,13.27
2019-01-26T02:50:01.683Z,14.53
2019-01-26T02:55:05.803Z,14.37
2019-01-26T03:00:14.002Z,14.70
2019-01-26T03:05:18.137Z,15.07
2019-01-26T03:10:22.957Z,14.07
2019-01-26T03:15:26.627Z,15.60
2019-01-26T03:20:33.291Z,16.37
2019-01-26T03:25:36.986Z,17.17
2019-01-26T03:30:40.726Z,18.63
2019-01-26T03:35:44.417Z,18.43
2019-01-26T03:40:48.235Z,20.23
2019-01-26T03:45:52.224Z,19.33
2019-01-26T03:50:55.892Z,20.67
2019-01-26T03:56:00.015Z,20.63
2019-01-26T04:01:03.786Z,20.57
2019-01-26T04:06:07.539Z,23.80
2019-01-26T04:11:11.230Z,26.70
2019-01-26T04:16:14.879Z,25.97
2019-01-26T04:21:18.799Z,25.47
2019-01-26T04:26:22.472Z,27.77
2019-01-26T04:31:26.227Z,27.50
2019-01-26T04:36:29.911Z,27.03
2019-01-26T04:41:33.608Z,23.87
2019-01-26T04:46:37.284Z,23.57
2019-01-26T04:51:40.975Z,24.20
2019-01-26T04:56:44.897Z,27.27
2019-01-26T05:01:48.573Z,24.90
2019-01-26T05:06:52.256Z,24.33
2019-01-26T05:11:55.951Z,21.97
2019-01-26T05:16:59.653Z,22.67
2019-01-26T05:22:03.738Z,18.37
2019-01-26T05:27:07.473Z,17.70
2019-01-26T05:32:11.393Z,18.60
2019-01-26T05:37:15.106Z,19.17
2019-01-26T05:42:18.755Z,19.80
2019-01-26T05:47:22.446Z,17.63
2019-01-26T05:52:26.171Z,18.93
2019-01-26T05:57:30.119Z,14.63
2019-01-26T06:02:33.789Z,13.57
2019-01-26T06:07:37.461Z,11.47
2019-01-26T06:12:41.145Z,12.00
2019-01-26T06:17:44.806Z,14.30
2019-01-26T06:22:48.578Z,11.43
2019-01-26T06:27:52.340Z,9.50
2019-01-26T06:32:57.105Z,8.67
2019-01-26T06:38:00.806Z,7.13
2019-01-26T06:43:04.556Z,6.63
2019-01-26T06:48:08.300Z,5.87
2019-01-26T06:53:11.979Z,6.40
2019-01-26T06:58:15.655Z,6.30
2019-01-26T07:03:19.327Z,5.63
2019-01-26T07:08:23.581Z,5.90
2019-01-26T07:13:27.337Z,4.93
2019-01-26T07:18:31.065Z,4.50
2019-01-26T07:23:35.007Z,4.83
2019-01-26T07:28:38.753Z,4.83
2019-01-26T07:33:42.427Z,5.47
2019-01-26T07:38:46.150Z,4.27
2019-01-26T07:43:49.815Z,4.97
2019-01-26T07:48:53.831Z,4.07
2019-01-26T07:53:57.572Z,4.00
2019-01-26T07:59:01.607Z,3.80
2019-01-26T08:04:05.436Z,3.80
2019-01-26T08:09:09.611Z,3.43
2019-01-26T08:14:13.292Z,3.80
2019-01-26T08:19:17.020Z,3.40
2019-01-26T08:24:21.041Z,3.50
2019-01-26T08:29:25.258Z,2.60
2019-01-26T08:34:28.922Z,2.93
2019-01-26T08:39:32.654Z,2.23
2019-01-26T08:44:36.382Z,2.67
2019-01-26T08:49:40.099Z,2.70
2019-01-26T08:54:43.840Z,2.67
2019-01-26T08:59:47.517Z,2.30
2019-01-26T09:04:53.161Z,2.33
2019-01-26T09:09:56.839Z,2.50
2019-01-26T09:15:00.593Z,2.33
2019-01-26T09:20:05.720Z,2.30
2019-01-26T09:25:09.488Z,2.50
2019-01-26T09:30:14.029Z,1.97
2019-01-26T09:35:17.704Z,1.97
2019-01-26T09:40:21.626Z,1.87
2019-01-26T09:45:25.599Z,2.20
2019-01-26T09:50:29.265Z,2.30
2019-01-26T09:55:33.675Z,1.90
2019-01-26T10:00:37.373Z,2.23
2019-01-26T10:05:41.085Z,2.27
2019-01-26T10:10:44.757Z,2.57
2019-01-26T10:15:48.487Z,1.93
2019-01-26T10:20:52.139Z,2.13
2019-01-26T10:25:55.821Z,2.63
2019-01-26T10:31:01.013Z,2.53
2019-01-26T10:36:23.950Z,3.00
2019-01-26T10:41:53.088Z,2.70
2019-01-26T10:46:56.843Z,2.70
2019-01-26T10:52:00.851Z,3.03
2019-01-26T10:57:05.144Z,2.63
2019-01-26T11:02:09.554Z,2.67
2019-01-26T11:07:13.225Z,2.60
2019-01-26T11:12:17.214Z,2.73
2019-01-26T11:17:20.872Z,2.70
2019-01-26T11:22:24.892Z,2.37
2019-01-26T11:27:28.582Z,2.30
2019-01-26T11:32:32.325Z,2.10
2019-01-26T11:37:36.027Z,2.10
2019-01-26T11:42:40.096Z,2.30
2019-01-26T11:47:43.794Z,1.97
2019-01-26T11:52:47.820Z,2.57
2019-01-26T11:57:51.489Z,2.27
2019-01-26T12:03:14.373Z,2.10
2019-01-26T12:08:18.088Z,2.93
2019-01-26T12:13:21.756Z,3.40
2019-01-26T12:18:25.776Z,3.57
2019-01-26T12:23:29.719Z,3.43
2019-01-26T12:28:33.969Z,4.63
2019-01-26T12:33:37.754Z,3.97
2019-01-26T12:38:41.739Z,4.33
2019-01-26T12:43:45.739Z,5.13
2019-01-26T12:48:49.408Z,4.47
2019-01-26T12:53:53.106Z,5.43
2019-01-26T12:58:56.766Z,5.90
2019-01-26T13:04:00.486Z,5.33
2019-01-26T13:09:07.418Z,6.43
2019-01-26T13:14:11.374Z,7.67
2019-01-26T13:19:15.854Z,6.40
2019-01-26T13:24:19.665Z,7.30
2019-01-26T13:29:23.337Z,7.50
2019-01-26T13:34:27.022Z,7.90
2019-01-26T13:39:31.008Z,6.73
2019-01-26T13:44:34.749Z,6.67
2019-01-26T13:49:43.991Z,7.43
2019-01-26T13:54:44.536Z,7.47
2019-01-26T13:59:48.562Z,7.10
2019-01-26T14:04:52.323Z,7.03
2019-01-26T14:09:56.101Z,7.80
2019-01-26T14:14:59.839Z,6.30
2019-01-26T14:20:04.510Z,8.03
2019-01-26T14:25:09.211Z,7.57
2019-01-26T14:30:17.144Z,7.80
2019-01-26T14:35:20.969Z,6.17
2019-01-26T14:40:24.729Z,4.83
2019-01-26T14:45:29.272Z,4.33
2019-01-26T14:50:33.107Z,3.43
2019-01-26T14:55:37.019Z,2.73
2019-01-26T15:00:40.770Z,3.03
2019-01-26T15:05:44.561Z,2.80
2019-01-26T15:10:48.227Z,2.77
2019-01-26T15:15:51.992Z,2.50
2019-01-26T15:20:55.651Z,2.57
2019-01-26T15:25:59.357Z,2.57
2019-01-26T15:31:03.013Z,2.63
2019-01-26T15:36:09.097Z,2.30
2019-01-26T15:41:12.189Z,2.80
2019-01-26T15:46:15.857Z,3.30
2019-01-26T15:51:19.547Z,2.83
2019-01-26T15:56:23.231Z,2.43
2019-01-26T16:01:26.899Z,2.37
2019-01-26T16:06:30.587Z,2.60
2019-01-26T16:11:34.570Z,2.60
2019-01-26T16:16:38.289Z,2.70
2019-01-26T16:21:41.983Z,3.17
2019-01-26T16:26:45.671Z,2.40
2019-01-26T16:31:49.501Z,2.93
2019-01-26T16:36:53.249Z,2.60
2019-01-26T16:41:57.153Z,3.23
2019-01-26T16:47:01.159Z,3.30
2019-01-26T16:52:05.403Z,4.40
2019-01-26T16:57:09.143Z,3.80
2019-01-26T17:02:12.897Z,3.83
2019-01-26T17:07:16.694Z,3.87
2019-01-26T17:12:20.773Z,4.63
2019-01-26T17:17:24.557Z,3.67
2019-01-26T17:22:28.249Z,2.70
2019-01-26T17:27:31.907Z,3.27
2019-01-26T17:32:35.600Z,3.50
2019-01-26T17:37:39.600Z,3.77
2019-01-26T17:42:43.359Z,3.50
2019-01-26T17:47:47.265Z,3.40
2019-01-26T17:52:51.100Z,3.57
2019-01-26T17:57:54.773Z,3.40
2019-01-26T18:02:58.443Z,3.50
2019-01-26T18:08:02.132Z,3.20
2019-01-26T18:13:05.885Z,3.10
2019-01-26T18:18:09.627Z,3.30
2019-01-26T18:23:14.017Z,3.00
2019-01-26T18:28:17.760Z,3.33
2019-01-26T18:33:21.472Z,3.10
2019-01-26T18:38:25.289Z,3.27
2019-01-26T18:43:29.763Z,2.53
2019-01-26T18:48:33.735Z,2.63
2019-01-26T18:53:37.435Z,3.07
2019-01-26T18:58:41.425Z,3.40
2019-01-26T19:04:14.857Z,3.23
2019-01-26T19:09:18.576Z,3.47
2019-01-26T19:14:22.276Z,3.20
2019-01-26T19:19:25.931Z,3.03
2019-01-26T19:24:29.626Z,3.27
2019-01-26T19:29:33.660Z,4.13
2019-01-26T19:34:37.603Z,3.40
2019-01-26T19:39:41.298Z,3.37
2019-01-26T19:44:44.955Z,2.77
2019-01-26T19:49:48.932Z,3.23
2019-01-26T19:54:52.681Z,4.50
2019-01-26T19:59:56.396Z,4.00
2019-01-26T20:05:00.357Z,4.70
2019-01-26T20:10:04.936Z,4.83
2019-01-26T20:15:12.425Z,5.17
2019-01-26T20:20:19.395Z,5.60
2019-01-26T20:25:23.166Z,6.40
2019-01-26T20:30:31.148Z,8.50
2019-01-26T20:35:34.828Z,8.80
2019-01-26T20:40:39.627Z,7.03
2019-01-26T20:45:43.526Z,6.30
2019-01-26T20:50:47.192Z,4.73
2019-01-26T20:55:51.150Z,5.80
2019-01-26T21:00:54.816Z,6.33
2019-01-26T21:05:58.487Z,5.37
2019-01-26T21:11:02.165Z,5.73
2019-01-26T21:16:06.223Z,5.17
2019-01-26T21:21:09.904Z,5.87
2019-01-26T21:26:13.591Z,4.93
2019-01-26T21:31:17.333Z,5.30
2019-01-26T21:36:21.089Z,5.10
2019-01-26T21:41:24.789Z,4.90
2019-01-26T21:46:28.470Z,4.37
2019-01-26T21:51:38.815Z,4.17
2019-01-26T21:56:37.844Z,4.03
2019-01-26T22:01:41.590Z,4.30
2019-01-26T22:06:45.301Z,3.83
2019-01-26T22:11:49.088Z,3.67
2019-01-26T22:16:52.737Z,3.50
2019-01-26T22:21:56.470Z,2.90
2019-01-26T22:27:00.427Z,2.70
2019-01-26T22:32:04.727Z,3.20
2019-01-26T22:37:08.731Z,3.00
2019-01-26T22:42:12.411Z,2.63
2019-01-26T22:47:16.089Z,2.47
2019-01-26T22:52:19.859Z,3.03
2019-01-26T22:57:23.634Z,2.70
2019-01-26T23:02:27.402Z,2.40
2019-01-26T23:07:49.696Z,2.43
2019-01-26T23:13:24.477Z,2.40
2019-01-26T23:19:13.970Z,2.80
2019-01-26T23:24:42.481Z,2.53
2019-01-26T23:30:27.458Z,2.40
2019-01-26T23:35:31.112Z,3.40
2019-01-26T23:40:34.810Z,3.10
2019-01-26T23:45:38.746Z,3.37
2019-01-26T23:50:42.453Z,3.80
2019-01-26T23:55:46.202Z,2.90
